Time,TemperatureF,DewpointF,PressureIn,WindDirection,WindDirectionDegrees,WindSpeedMPH,WindSpeedGustMPH,Humidity,HourlyPrecipIn,Conditions,Clouds,dailyrainin,SoftwareType,DateUTC
2013-01-25 00:00:00,11.3,-26.1,31.03,SSW,202,14.0,25.0,16,-99.99,,,0.00,meteohub,2013-01-25 05:00:00,
2013-01-25 00:02:00,11.3,-26.1,31.03,South,185,13.0,25.0,16,-99.99,,,0.00,meteohub,2013-01-25 05:02:00,
2013-01-25 00:04:00,11.3,-26.1,31.03,South,189,17.0,25.0,16,-99.99,,,0.00,meteohub,2013-01-25 05:04:00,
2013-01-25 00:08:00,11.1,-26.3,31.03,SSW,209,13.0,25.0,16,-99.99,,,0.00,meteohub,2013-01-25 05:08:00,
2013-01-25 00:13:00,11.1,-26.3,31.03,South,190,16.0,29.0,16,-99.99,,,0.00,meteohub,2013-01-25 05:13:00,
2013-01-25 00:18:00,11.1,-26.3,31.03,SSW,210,27.0,29.0,16,-99.99,,,0.00,meteohub,2013-01-25 05:18:00,
2013-01-25 00:23:00,11.1,-26.3,31.03,SW,229,17.0,21.0,16,-99.99,,,0.00,meteohub,2013-01-25 05:23:00,
2013-01-25 00:29:00,11.1,-26.3,31.03,SSW,204,17.0,21.0,16,-99.99,,,0.00,meteohub,2013-01-25 05:29:00,
2013-01-25 00:34:00,10.9,-26.5,31.03,SSW,200,13.0,21.0,16,-99.99,,,0.00,meteohub,2013-01-25 05:34:00,
2013-01-25 00:40:00,10.9,-26.5,31.03,SSW,206,13.0,23.0,16,-99.99,,,0.00,meteohub,2013-01-25 05:40:00,
2013-01-25 00:45:00,10.8,-26.7,31.03,SSW,204,18.0,23.0,16,-99.99,,,0.00,meteohub,2013-01-25 05:45:00,
2013-01-25 00:50:00,10.8,-26.7,31.03,SSW,201,16.0,22.0,16,-99.99,,,0.00,meteohub,2013-01-25 05:50:00,
2013-01-25 00:55:00,10.8,-26.7,31.03,SSW,206,24.0,24.0,16,-99.99,,,0.00,meteohub,2013-01-25 05:55:00,
2013-01-25 01:00:00,10.8,-26.7,31.03,SW,232,18.0,22.0,16,-99.99,,,0.00,meteohub,2013-01-25 06:00:00,
2013-01-25 01:06:00,10.8,-26.7,31.03,SW,220,13.0,22.0,16,-99.99,,,0.00,meteohub,2013-01-25 06:06:00,
2013-01-25 01:11:00,10.6,-26.9,31.03,SSW,197,18.0,25.0,16,-99.99,,,0.00,meteohub,2013-01-25 06:11:00,
2013-01-25 01:16:00,10.4,-26.9,31.03,SSW,207,14.0,25.0,16,-99.99,,,0.00,meteohub,2013-01-25 06:16:00,
2013-01-25 01:22:00,10.4,-26.9,31.03,SW,220,15.0,25.0,16,-99.99,,,0.00,meteohub,2013-01-25 06:22:00,
2013-01-25 01:27:00,10.2,-27.0,31.03,SSW,210,11.0,24.0,16,-99.99,,,0.00,meteohub,2013-01-25 06:27:00,
2013-01-25 01:32:00,10.2,-27.0,31.03,SW,217,12.0,24.0,16,-99.99,,,0.00,meteohub,2013-01-25 06:32:00,
2013-01-25 01:38:00,10.0,-27.2,31.03,South,187,11.0,20.0,16,-99.99,,,0.00,meteohub,2013-01-25 06:38:00,
2013-01-25 01:43:00,10.0,-27.2,31.03,SSW,197,10.0,20.0,16,-99.99,,,0.00,meteohub,2013-01-25 06:43:00,
2013-01-25 01:48:00,10.0,-27.2,31.03,SSW,197,12.0,19.0,16,-99.99,,,0.00,meteohub,2013-01-25 06:48:00,
2013-01-25 01:54:00,10.0,-27.2,31.03,SSW,193,17.0,19.0,16,-99.99,,,0.00,meteohub,2013-01-25 06:54:00,
2013-01-25 01:59:00,10.0,-27.2,31.03,SSW,193,12.0,22.0,16,-99.99,,,0.00,meteohub,2013-01-25 06:59:00,
2013-01-25 02:04:00,9.9,-27.4,31.03,SSW,209,12.0,22.0,16,-99.99,,,0.00,meteohub,2013-01-25 07:04:00,
2013-01-25 02:09:00,9.7,-27.6,31.03,SSW,209,13.0,22.0,16,-99.99,,,0.00,meteohub,2013-01-25 07:09:00,
2013-01-25 02:15:00,9.7,-27.6,31.03,SW,215,15.0,19.0,16,-99.99,,,0.00,meteohub,2013-01-25 07:15:00,
2013-01-25 02:20:00,9.7,-27.6,31.03,SSW,201,13.0,19.0,16,-99.99,,,0.00,meteohub,2013-01-25 07:20:00,
2013-01-25 02:25:00,9.7,-27.6,31.03,SSW,205,13.0,18.0,16,-99.99,,,0.00,meteohub,2013-01-25 07:25:00,
2013-01-25 02:30:00,9.7,-27.6,31.03,SSW,194,11.0,18.0,16,-99.99,,,0.00,meteohub,2013-01-25 07:30:00,
2013-01-25 02:36:00,9.5,-27.8,31.03,South,171,10.0,18.0,16,-99.99,,,0.00,meteohub,2013-01-25 07:36:00,
2013-01-25 02:41:00,9.5,-27.8,31.03,SSW,197,13.0,17.0,16,-99.99,,,0.00,meteohub,2013-01-25 07:41:00,
2013-01-25 02:46:00,9.3,-27.8,31.03,South,188,17.0,17.0,16,-99.99,,,0.00,meteohub,2013-01-25 07:46:00,
2013-01-25 02:52:00,9.3,-27.8,31.03,South,189,11.0,15.0,16,-99.99,,,0.00,meteohub,2013-01-25 07:52:00,
2013-01-25 02:57:00,9.3,-27.8,31.03,SSW,203,15.0,19.0,16,-99.99,,,0.00,meteohub,2013-01-25 07:57:00,
2013-01-25 03:02:00,9.3,-27.8,31.03,South,191,15.0,19.0,16,-99.99,,,0.00,meteohub,2013-01-25 08:02:00,
2013-01-25 03:07:00,9.3,-27.8,31.03,SSW,197,15.0,19.0,16,-99.99,,,0.00,meteohub,2013-01-25 08:07:00,
2013-01-25 03:12:00,9.1,-27.9,31.03,SSW,195,13.0,19.0,16,-99.99,,,0.00,meteohub,2013-01-25 08:12:00,
2013-01-25 03:17:00,9.0,-28.1,31.03,SW,215,12.0,18.0,16,-99.99,,,0.00,meteohub,2013-01-25 08:17:00,
2013-01-25 03:22:00,9.0,-28.1,31.03,South,190,13.0,18.0,16,-99.99,,,0.00,meteohub,2013-01-25 08:22:00,
2013-01-25 03:28:00,8.8,-28.3,31.03,SW,217,17.0,17.0,16,-99.99,,,0.00,meteohub,2013-01-25 08:28:00,
2013-01-25 03:33:00,8.8,-28.3,31.03,South,181,15.0,17.0,16,-99.99,,,0.00,meteohub,2013-01-25 08:33:00,
2013-01-25 03:38:00,8.8,-28.3,31.03,SSW,201,15.0,17.0,16,-99.99,,,0.00,meteohub,2013-01-25 08:38:00,
2013-01-25 03:44:00,8.6,-28.5,31.03,SSW,199,12.0,17.0,16,-99.99,,,0.00,meteohub,2013-01-25 08:44:00,
2013-01-25 03:49:00,8.6,-28.5,31.03,SSW,200,10.0,17.0,16,-99.99,,,0.00,meteohub,2013-01-25 08:49:00,
2013-01-25 03:54:00,8.8,-28.3,31.03,SSW,209,10.0,15.0,16,-99.99,,,0.00,meteohub,2013-01-25 08:54:00,
2013-01-25 04:00:00,8.8,-28.3,31.03,SSW,205,10.0,15.0,16,-99.99,,,0.00,meteohub,2013-01-25 09:00:00,
2013-01-25 04:05:00,8.8,-28.3,31.03,SSW,198,12.0,15.0,16,-99.99,,,0.00,meteohub,2013-01-25 09:05:00,
2013-01-25 04:10:00,8.8,-28.3,31.03,SW,214,8.0,15.0,16,-99.99,,,0.00,meteohub,2013-01-25 09:10:00,
2013-01-25 04:16:00,8.6,-28.5,31.03,SW,216,12.0,15.0,16,-99.99,,,0.00,meteohub,2013-01-25 09:16:00,
2013-01-25 04:21:00,8.6,-28.5,31.03,SSW,208,12.0,15.0,16,-99.99,,,0.00,meteohub,2013-01-25 09:21:00,
2013-01-25 04:26:00,8.6,-28.5,31.03,SSW,193,16.0,16.0,16,-99.99,,,0.00,meteohub,2013-01-25 09:26:00,
2013-01-25 04:32:00,8.4,-28.5,31.03,SSW,210,9.0,15.0,16,-99.99,,,0.00,meteohub,2013-01-25 09:32:00,
2013-01-25 04:37:00,8.4,-28.5,31.03,SSW,213,12.0,15.0,16,-99.99,,,0.00,meteohub,2013-01-25 09:37:00,
2013-01-25 04:42:00,8.4,-28.5,31.03,SSW,212,9.0,16.0,16,-99.99,,,0.00,meteohub,2013-01-25 09:42:00,
2013-01-25 04:47:00,8.4,-28.5,31.03,SSW,198,15.0,15.0,16,-99.99,,,0.00,meteohub,2013-01-25 09:47:00,
2013-01-25 04:52:00,8.4,-28.5,31.03,SSW,205,12.0,15.0,16,-99.99,,,0.00,meteohub,2013-01-25 09:52:00,
2013-01-25 04:57:00,8.4,-28.5,31.03,South,191,8.0,15.0,16,-99.99,,,0.00,meteohub,2013-01-25 09:57:00,
2013-01-25 05:02:00,8.4,-28.5,31.03,SSW,213,13.0,17.0,16,-99.99,,,0.00,meteohub,2013-01-25 10:02:00,
2013-01-25 05:07:00,8.4,-28.5,31.03,SSW,212,11.0,17.0,16,-99.99,,,0.00,meteohub,2013-01-25 10:07:00,
2013-01-25 05:12:00,8.4,-28.5,31.03,SSW,193,13.0,17.0,16,-99.99,,,0.00,meteohub,2013-01-25 10:12:00,
2013-01-25 05:17:00,8.4,-28.5,31.03,SSW,193,14.0,15.0,16,-99.99,,,0.00,meteohub,2013-01-25 10:17:00,
2013-01-25 05:23:00,8.2,-28.7,31.03,SW,217,11.0,15.0,16,-99.99,,,0.00,meteohub,2013-01-25 10:23:00,
2013-01-25 05:28:00,8.1,-28.8,31.03,SSW,192,11.0,15.0,16,-99.99,,,0.00,meteohub,2013-01-25 10:28:00,
2013-01-25 05:34:00,8.2,-28.7,31.03,SSW,192,15.0,17.0,16,-99.99,,,0.00,meteohub,2013-01-25 10:34:00,
2013-01-25 05:39:00,8.1,-28.8,31.03,SSW,195,11.0,17.0,16,-99.99,,,0.00,meteohub,2013-01-25 10:39:00,
2013-01-25 05:44:00,8.1,-28.8,31.03,SSW,193,11.0,17.0,16,-99.99,,,0.00,meteohub,2013-01-25 10:44:00,
2013-01-25 05:50:00,8.1,-28.8,31.03,South,187,10.0,17.0,16,-99.99,,,0.00,meteohub,2013-01-25 10:50:00,
2013-01-25 05:55:00,8.1,-28.8,31.03,SSW,196,11.0,17.0,16,-99.99,,,0.00,meteohub,2013-01-25 10:55:00,
2013-01-25 06:00:00,8.1,-28.8,31.03,SSW,195,15.0,17.0,16,-99.99,,,0.00,meteohub,2013-01-25 11:00:00,
2013-01-25 06:06:00,8.2,-28.7,31.03,SSW,202,15.0,17.0,16,-99.99,,,0.00,meteohub,2013-01-25 11:06:00,
2013-01-25 06:11:00,8.2,-28.7,31.03,SSW,205,11.0,17.0,16,-99.99,,,0.00,meteohub,2013-01-25 11:11:00,
2013-01-25 06:16:00,8.2,-28.7,31.03,SSW,200,13.0,17.0,16,-99.99,,,0.00,meteohub,2013-01-25 11:16:00,
2013-01-25 06:21:00,8.2,-28.7,31.03,South,190,12.0,17.0,16,-99.99,,,0.00,meteohub,2013-01-25 11:21:00,
2013-01-25 06:26:00,8.1,-28.8,31.03,SSW,198,11.0,22.0,16,-99.99,,,0.00,meteohub,2013-01-25 11:26:00,
2013-01-25 06:32:00,8.2,-28.7,31.03,SSW,202,16.0,22.0,16,-99.99,,,0.00,meteohub,2013-01-25 11:32:00,
2013-01-25 06:37:00,8.1,-28.8,31.03,SSW,207,13.0,22.0,16,-99.99,,,0.00,meteohub,2013-01-25 11:37:00,
2013-01-25 06:42:00,8.1,-28.8,31.03,SSW,209,8.0,22.0,16,-99.99,,,0.00,meteohub,2013-01-25 11:42:00,
2013-01-25 06:47:00,8.1,-28.8,31.03,SSW,197,11.0,22.0,16,-99.99,,,0.00,meteohub,2013-01-25 11:47:00,
2013-01-25 06:52:00,8.1,-28.8,31.03,SSW,204,10.0,17.0,16,-99.99,,,0.00,meteohub,2013-01-25 11:52:00,
2013-01-25 06:57:00,8.1,-28.8,31.03,SSW,202,11.0,17.0,16,-99.99,,,0.00,meteohub,2013-01-25 11:57:00,
2013-01-25 07:02:00,7.9,-29.0,31.03,South,181,8.0,17.0,16,-99.99,,,0.00,meteohub,2013-01-25 12:02:00,
2013-01-25 07:07:00,8.1,-28.8,31.03,SW,214,11.0,17.0,16,-99.99,,,0.00,meteohub,2013-01-25 12:07:00,
2013-01-25 07:12:00,8.1,-28.8,31.03,SSW,213,10.0,15.0,16,-99.99,,,0.00,meteohub,2013-01-25 12:12:00,
2013-01-25 07:17:00,8.1,-28.8,31.03,SSW,195,8.0,15.0,16,-99.99,,,0.00,meteohub,2013-01-25 12:17:00,
2013-01-25 07:22:00,8.1,-28.8,31.03,SSW,213,10.0,13.0,16,-99.99,,,0.00,meteohub,2013-01-25 12:22:00,
2013-01-25 07:27:00,8.1,-28.8,31.03,SSW,196,8.0,13.0,16,-99.99,,,0.00,meteohub,2013-01-25 12:27:00,
2013-01-25 07:32:00,8.4,-28.5,31.03,South,187,13.0,13.0,16,-99.99,,,0.00,meteohub,2013-01-25 12:32:00,
2013-01-25 07:37:00,8.6,-28.5,31.03,SW,216,11.0,13.0,16,-99.99,,,0.00,meteohub,2013-01-25 12:37:00,
2013-01-25 07:43:00,8.6,-28.5,31.03,SSW,208,13.0,15.0,16,-99.99,,,0.00,meteohub,2013-01-25 12:43:00,
2013-01-25 07:48:00,8.6,-28.5,31.03,South,191,12.0,15.0,16,-99.99,,,0.00,meteohub,2013-01-25 12:48:00,
2013-01-25 07:53:00,8.8,-28.3,31.03,SSW,193,10.0,13.0,16,-99.99,,,0.00,meteohub,2013-01-25 12:53:00,
2013-01-25 07:59:00,9.1,-27.9,31.03,SSW,211,13.0,13.0,16,-99.99,,,0.00,meteohub,2013-01-25 12:59:00,
2013-01-25 08:04:00,9.3,-27.8,31.03,SSW,213,8.0,13.0,16,-99.99,,,0.00,meteohub,2013-01-25 13:04:00,
2013-01-25 08:09:00,9.5,-27.8,31.03,SSW,209,15.0,15.0,16,-99.99,,,0.00,meteohub,2013-01-25 13:09:00,
2013-01-25 08:14:00,9.7,-27.6,31.03,South,169,13.0,15.0,16,-99.99,,,0.00,meteohub,2013-01-25 13:14:00,
2013-01-25 08:20:00,9.9,-27.4,31.03,SSW,197,6.0,15.0,16,-99.99,,,0.00,meteohub,2013-01-25 13:20:00,
2013-01-25 08:25:00,10.2,-27.0,31.03,South,191,13.0,15.0,16,-99.99,,,0.00,meteohub,2013-01-25 13:25:00,
2013-01-25 08:30:00,10.4,-26.9,31.03,SW,218,11.0,15.0,16,-99.99,,,0.00,meteohub,2013-01-25 13:30:00,
2013-01-25 08:35:00,10.6,-26.9,31.03,SSW,206,11.0,15.0,16,-99.99,,,0.00,meteohub,2013-01-25 13:35:00,
2013-01-25 08:41:00,10.8,-26.7,31.03,South,184,13.0,15.0,16,-99.99,,,0.00,meteohub,2013-01-25 13:41:00,
2013-01-25 08:46:00,11.1,-26.3,31.03,South,176,10.0,15.0,16,-99.99,,,0.00,meteohub,2013-01-25 13:46:00,
2013-01-25 08:52:00,11.3,-26.1,31.03,SSW,195,12.0,15.0,16,-99.99,,,0.00,meteohub,2013-01-25 13:52:00,
2013-01-25 08:57:00,11.7,-26.0,31.03,SSW,196,10.0,17.0,16,-99.99,,,0.00,meteohub,2013-01-25 13:57:00,
2013-01-25 09:02:00,12.2,-25.4,31.03,SW,220,6.0,17.0,16,-99.99,,,0.00,meteohub,2013-01-25 14:02:00,
2013-01-25 09:07:00,12.6,-25.1,31.03,SSW,207,8.0,17.0,16,-99.99,,,0.00,meteohub,2013-01-25 14:07:00,
2013-01-25 09:12:00,12.7,-25.1,31.03,SSW,212,10.0,15.0,16,-99.99,,,0.00,meteohub,2013-01-25 14:12:00,
2013-01-25 09:17:00,12.6,-25.1,31.03,SW,216,11.0,15.0,16,-99.99,,,0.00,meteohub,2013-01-25 14:17:00,
2013-01-25 09:22:00,13.1,-24.7,31.03,SW,229,8.0,15.0,16,-99.99,,,0.00,meteohub,2013-01-25 14:22:00,
2013-01-25 09:27:00,13.5,-24.3,31.03,SSW,204,12.0,15.0,16,-99.99,,,0.00,meteohub,2013-01-25 14:27:00,
2013-01-25 09:32:00,13.6,-24.3,31.03,SW,231,19.0,19.0,16,-99.99,,,0.00,meteohub,2013-01-25 14:32:00,
2013-01-25 09:37:00,13.8,-24.2,31.03,SSW,211,11.0,17.0,16,-99.99,,,0.00,meteohub,2013-01-25 14:37:00,
2013-01-25 09:42:00,14.2,-25.1,31.03,SW,216,13.0,17.0,15,-99.99,,,0.00,meteohub,2013-01-25 14:42:00,
2013-01-25 09:47:00,14.4,-24.9,31.03,SSW,198,13.0,21.0,15,-99.99,,,0.00,meteohub,2013-01-25 14:47:00,
2013-01-25 09:53:00,14.7,-24.5,31.03,SSW,200,7.0,21.0,15,-99.99,,,0.00,meteohub,2013-01-25 14:53:00,
2013-01-25 09:58:00,15.3,-24.2,31.03,WSW,238,11.0,21.0,15,-99.99,,,0.00,meteohub,2013-01-25 14:58:00,
2013-01-25 10:03:00,15.8,-23.6,31.03,SW,214,9.0,21.0,15,-99.99,,,0.00,meteohub,2013-01-25 15:03:00,
2013-01-25 10:09:00,16.3,-23.3,31.03,SW,217,9.0,15.0,15,-99.99,,,0.00,meteohub,2013-01-25 15:09:00,
2013-01-25 10:14:00,16.5,-23.1,31.03,SSW,201,10.0,15.0,15,-99.99,,,0.00,meteohub,2013-01-25 15:14:00,
2013-01-25 10:19:00,16.7,-22.9,31.03,SSW,209,11.0,15.0,15,-99.99,,,0.00,meteohub,2013-01-25 15:19:00,
2013-01-25 10:25:00,17.4,-22.4,31.03,SW,218,6.0,13.0,15,-99.99,,,0.00,meteohub,2013-01-25 15:25:00,
2013-01-25 10:30:00,16.9,-22.7,31.03,SW,222,12.0,13.0,15,-99.99,,,0.00,meteohub,2013-01-25 15:30:00,
2013-01-25 10:36:00,17.1,-22.7,31.03,SW,236,8.0,13.0,15,-99.99,,,0.00,meteohub,2013-01-25 15:36:00,
2013-01-25 10:41:00,17.8,-23.4,31.03,SSW,212,14.0,19.0,14,-99.99,,,0.00,meteohub,2013-01-25 15:41:00,
2013-01-25 10:46:00,18.0,-23.3,31.03,SSW,211,8.0,19.0,14,-99.99,,,0.00,meteohub,2013-01-25 15:46:00,
2013-01-25 10:51:00,18.1,-23.1,31.03,SW,225,13.0,19.0,14,-99.99,,,0.00,meteohub,2013-01-25 15:51:00,
2013-01-25 10:57:00,19.0,-22.4,31.03,SW,217,10.0,16.0,14,-99.99,,,0.00,meteohub,2013-01-25 15:57:00,
2013-01-25 11:02:00,19.8,-21.8,31.03,SSW,192,11.0,16.0,14,-99.99,,,0.00,meteohub,2013-01-25 16:02:00,
2013-01-25 11:07:00,20.3,-21.3,31.03,WNW,282,11.0,16.0,14,-99.99,,,0.00,meteohub,2013-01-25 16:07:00,
2013-01-25 11:12:00,21.4,-20.4,31.03,West,259,11.0,14.0,14,-99.99,,,0.00,meteohub,2013-01-25 16:12:00,
2013-01-25 11:17:00,22.3,-19.7,31.03,SW,226,12.0,14.0,14,-99.99,,,0.00,meteohub,2013-01-25 16:17:00,
2013-01-25 11:23:00,20.3,-21.3,31.03,South,183,11.0,14.0,14,-99.99,,,0.00,meteohub,2013-01-25 16:23:00,
2013-01-25 11:28:00,21.0,-20.7,31.03,SSW,210,10.0,14.0,14,-99.99,,,0.00,meteohub,2013-01-25 16:28:00,
2013-01-25 11:33:00,20.8,-20.9,31.03,WSW,241,6.0,16.0,14,-99.99,,,0.00,meteohub,2013-01-25 16:33:00,
2013-01-25 11:39:00,21.4,-20.4,31.03,SSW,192,14.0,16.0,14,-99.99,,,0.00,meteohub,2013-01-25 16:39:00,
2013-01-25 11:44:00,20.1,-21.5,31.03,SSW,210,13.0,16.0,14,-99.99,,,0.00,meteohub,2013-01-25 16:44:00,
2013-01-25 11:49:00,21.0,-20.7,31.03,SSW,194,13.0,16.0,14,-99.99,,,0.00,meteohub,2013-01-25 16:49:00,
2013-01-25 11:55:00,20.5,-21.1,31.03,SW,234,8.0,16.0,14,-99.99,,,0.00,meteohub,2013-01-25 16:55:00,
2013-01-25 12:00:00,21.6,-20.4,31.03,SSW,197,8.0,16.0,14,-99.99,,,0.00,meteohub,2013-01-25 17:00:00,
2013-01-25 12:06:00,22.5,-19.5,31.03,SW,223,5.0,15.0,14,-99.99,,,0.00,meteohub,2013-01-25 17:06:00,
2013-01-25 12:11:00,22.5,-19.5,31.03,SSW,207,11.0,15.0,14,-99.99,,,0.00,meteohub,2013-01-25 17:11:00,
2013-01-25 12:16:00,22.8,-19.3,31.03,SSW,206,5.0,15.0,14,-99.99,,,0.00,meteohub,2013-01-25 17:16:00,
2013-01-25 12:22:00,23.4,-20.2,31.03,SSW,205,11.0,15.0,13,-99.99,,,0.00,meteohub,2013-01-25 17:22:00,
2013-01-25 12:27:00,23.0,-19.1,31.03,SW,224,11.0,15.0,14,-99.99,,,0.00,meteohub,2013-01-25 17:27:00,
2013-01-25 12:32:00,22.8,-19.3,31.03,SW,216,12.0,15.0,14,-99.99,,,0.00,meteohub,2013-01-25 17:32:00,
2013-01-25 12:37:00,22.8,-19.3,31.03,SSW,207,8.0,15.0,14,-99.99,,,0.00,meteohub,2013-01-25 17:37:00,
2013-01-25 12:42:00,23.2,-20.4,31.03,SW,216,5.0,15.0,13,-99.99,,,0.00,meteohub,2013-01-25 17:42:00,
2013-01-25 12:47:00,23.9,-19.8,31.03,SW,227,6.0,13.0,13,-99.99,,,0.00,meteohub,2013-01-25 17:47:00,
2013-01-25 12:53:00,24.8,-19.1,31.03,South,180,4.0,13.0,13,-99.99,,,0.00,meteohub,2013-01-25 17:53:00,
2013-01-25 12:58:00,25.3,-18.8,31.03,South,174,6.0,13.0,13,-99.99,,,0.00,meteohub,2013-01-25 17:58:00,
2013-01-25 13:03:00,25.5,-18.6,31.03,South,171,6.0,13.0,13,-99.99,,,0.00,meteohub,2013-01-25 18:03:00,
2013-01-25 13:09:00,25.0,-18.9,31.03,SSW,201,7.0,8.0,13,-99.99,,,0.00,meteohub,2013-01-25 18:09:00,
2013-01-25 13:14:00,25.0,-18.9,31.03,SSE,168,8.0,8.0,13,-99.99,,,0.00,meteohub,2013-01-25 18:14:00,
2013-01-25 13:19:00,25.3,-18.8,31.03,SE,143,4.0,8.0,13,-99.99,,,0.00,meteohub,2013-01-25 18:19:00,
2013-01-25 13:25:00,25.0,-18.9,31.03,South,181,8.0,8.0,13,-99.99,,,0.00,meteohub,2013-01-25 18:25:00,
2013-01-25 13:30:00,25.0,-18.9,31.03,South,173,8.0,8.0,13,-99.99,,,0.00,meteohub,2013-01-25 18:30:00,
2013-01-25 13:35:00,24.6,-19.3,31.03,SSE,157,8.0,8.0,13,-99.99,,,0.00,meteohub,2013-01-25 18:35:00,
2013-01-25 13:40:00,24.6,-19.3,31.03,South,179,8.0,11.0,13,-99.99,,,0.00,meteohub,2013-01-25 18:40:00,
2013-01-25 13:46:00,25.0,-18.9,31.03,SSE,168,8.0,11.0,13,-99.99,,,0.00,meteohub,2013-01-25 18:46:00,
2013-01-25 13:51:00,25.2,-18.8,31.03,SSE,158,7.0,11.0,13,-99.99,,,0.00,meteohub,2013-01-25 18:51:00,
2013-01-25 13:56:00,25.0,-18.9,31.03,South,169,8.0,11.0,13,-99.99,,,0.00,meteohub,2013-01-25 18:56:00,
2013-01-25 14:02:00,25.0,-18.9,31.03,SSE,159,11.0,11.0,13,-99.99,,,0.00,meteohub,2013-01-25 19:02:00,
2013-01-25 14:07:00,25.2,-18.8,31.03,SSE,165,8.0,11.0,13,-99.99,,,0.00,meteohub,2013-01-25 19:07:00,
2013-01-25 14:12:00,25.3,-18.8,31.03,SSE,162,8.0,11.0,13,-99.99,,,0.00,meteohub,2013-01-25 19:12:00,
2013-01-25 14:17:00,26.1,-18.0,31.03,SE,135,6.0,12.0,13,-99.99,,,0.00,meteohub,2013-01-25 19:17:00,
2013-01-25 14:22:00,26.2,-17.9,31.03,South,169,9.0,12.0,13,-99.99,,,0.00,meteohub,2013-01-25 19:22:00,
2013-01-25 14:27:00,26.4,-17.9,31.03,South,184,8.0,12.0,13,-99.99,,,0.00,meteohub,2013-01-25 19:27:00,
2013-01-25 14:32:00,26.8,-19.1,31.03,SE,139,7.0,12.0,12,-99.99,,,0.00,meteohub,2013-01-25 19:32:00,
2013-01-25 14:37:00,26.8,-19.1,31.03,South,180,8.0,12.0,12,-99.99,,,0.00,meteohub,2013-01-25 19:37:00,
2013-01-25 14:43:00,26.6,-17.7,31.03,SSE,156,8.0,12.0,13,-99.99,,,0.00,meteohub,2013-01-25 19:43:00,
2013-01-25 14:48:00,26.2,-17.9,31.03,SSE,162,5.0,10.0,13,-99.99,,,0.00,meteohub,2013-01-25 19:48:00,
2013-01-25 14:53:00,25.9,-18.2,31.03,South,181,6.0,10.0,13,-99.99,,,0.00,meteohub,2013-01-25 19:53:00,
2013-01-25 14:59:00,25.5,-18.6,31.03,South,172,8.0,10.0,13,-99.99,,,0.00,meteohub,2013-01-25 19:59:00,
2013-01-25 15:04:00,25.0,-18.9,31.03,South,184,8.0,9.0,13,-99.99,,,0.00,meteohub,2013-01-25 20:04:00,
2013-01-25 15:09:00,24.8,-19.1,31.03,South,179,6.0,9.0,13,-99.99,,,0.00,meteohub,2013-01-25 20:09:00,
2013-01-25 15:15:00,24.6,-19.3,31.03,South,184,6.0,9.0,13,-99.99,,,0.00,meteohub,2013-01-25 20:15:00,
2013-01-25 15:20:00,24.4,-19.5,31.03,SE,144,6.0,9.0,13,-99.99,,,0.00,meteohub,2013-01-25 20:20:00,
2013-01-25 15:25:00,24.1,-19.7,31.03,South,177,6.0,9.0,13,-99.99,,,0.00,meteohub,2013-01-25 20:25:00,
2013-01-25 15:31:00,23.5,-20.2,31.03,South,177,6.0,9.0,13,-99.99,,,0.00,meteohub,2013-01-25 20:31:00,
2013-01-25 15:36:00,23.5,-20.2,31.03,SSW,192,6.0,9.0,13,-99.99,,,0.00,meteohub,2013-01-25 20:36:00,
2013-01-25 15:41:00,23.4,-20.2,31.03,South,183,6.0,9.0,13,-99.99,,,0.00,meteohub,2013-01-25 20:41:00,
2013-01-25 15:46:00,23.0,-19.1,31.03,South,189,9.0,9.0,14,-99.99,,,0.00,meteohub,2013-01-25 20:46:00,
2013-01-25 15:52:00,22.8,-19.3,31.03,SSE,161,8.0,9.0,14,-99.99,,,0.00,meteohub,2013-01-25 20:52:00,
2013-01-25 15:57:00,22.8,-19.3,31.03,SSE,165,8.0,11.0,14,-99.99,,,0.00,meteohub,2013-01-25 20:57:00,
2013-01-25 16:02:00,22.8,-19.3,31.03,South,189,8.0,11.0,14,-99.99,,,0.00,meteohub,2013-01-25 21:02:00,
2013-01-25 16:07:00,22.8,-19.3,31.03,SSE,161,6.0,11.0,14,-99.99,,,0.00,meteohub,2013-01-25 21:07:00,
2013-01-25 16:12:00,22.8,-19.3,31.03,SSE,159,9.0,12.0,14,-99.99,,,0.00,meteohub,2013-01-25 21:12:00,
2013-01-25 16:17:00,22.5,-19.5,31.03,SSW,192,8.0,12.0,14,-99.99,,,0.00,meteohub,2013-01-25 21:17:00,
2013-01-25 16:22:00,22.5,-19.5,31.03,South,180,11.0,12.0,14,-99.99,,,0.00,meteohub,2013-01-25 21:22:00,
2013-01-25 16:27:00,22.1,-19.8,31.03,South,188,9.0,12.0,14,-99.99,,,0.00,meteohub,2013-01-25 21:27:00,
2013-01-25 16:32:00,21.9,-20.0,31.03,SSW,198,8.0,12.0,14,-99.99,,,0.00,meteohub,2013-01-25 21:32:00,
2013-01-25 16:37:00,21.9,-20.0,31.03,SSW,196,8.0,11.0,14,-99.99,,,0.00,meteohub,2013-01-25 21:37:00,
2013-01-25 16:42:00,21.7,-20.2,31.03,SSW,205,6.0,11.0,14,-99.99,,,0.00,meteohub,2013-01-25 21:42:00,
2013-01-25 16:47:00,21.7,-20.2,31.03,South,187,8.0,11.0,14,-99.99,,,0.00,meteohub,2013-01-25 21:47:00,
2013-01-25 16:52:00,21.6,-20.4,31.03,SSE,166,6.0,11.0,14,-99.99,,,0.00,meteohub,2013-01-25 21:52:00,
2013-01-25 16:57:00,21.6,-20.4,31.03,SSW,200,8.0,11.0,14,-99.99,,,0.00,meteohub,2013-01-25 21:57:00,
2013-01-25 17:02:00,21.4,-20.4,31.03,SSW,198,6.0,11.0,14,-99.99,,,0.00,meteohub,2013-01-25 22:02:00,
2013-01-25 17:07:00,21.4,-20.4,31.03,SSW,196,5.0,11.0,14,-99.99,,,0.00,meteohub,2013-01-25 22:07:00,
2013-01-25 17:12:00,21.4,-20.4,31.03,South,191,5.0,8.0,14,-99.99,,,0.00,meteohub,2013-01-25 22:12:00,
2013-01-25 17:17:00,21.4,-20.4,31.03,SSW,195,5.0,8.0,14,-99.99,,,0.00,meteohub,2013-01-25 22:17:00,
2013-01-25 17:22:00,21.4,-20.4,31.03,SSW,202,4.0,8.0,14,-99.99,,,0.00,meteohub,2013-01-25 22:22:00,
2013-01-25 17:27:00,21.4,-20.4,31.03,SSW,207,3.0,6.0,14,-99.99,,,0.00,meteohub,2013-01-25 22:27:00,
2013-01-25 17:32:00,21.4,-20.4,31.03,SSW,207,4.0,6.0,14,-99.99,,,0.00,meteohub,2013-01-25 22:32:00,
2013-01-25 17:37:00,21.4,-20.4,31.03,SSW,196,5.0,6.0,14,-99.99,,,0.00,meteohub,2013-01-25 22:37:00,
2013-01-25 17:42:00,21.4,-20.4,31.03,SSW,192,5.0,6.0,14,-99.99,,,0.00,meteohub,2013-01-25 22:42:00,
2013-01-25 17:47:00,21.4,-20.4,31.03,SW,214,4.0,6.0,14,-99.99,,,0.00,meteohub,2013-01-25 22:47:00,
2013-01-25 17:52:00,21.4,-20.4,31.03,SW,217,6.0,6.0,14,-99.99,,,0.00,meteohub,2013-01-25 22:52:00,
2013-01-25 17:57:00,21.4,-20.4,31.03,SSW,196,6.0,6.0,14,-99.99,,,0.00,meteohub,2013-01-25 22:57:00,
2013-01-25 18:02:00,21.4,-20.4,31.03,SSW,207,5.0,6.0,14,-99.99,,,0.00,meteohub,2013-01-25 23:02:00,
2013-01-25 18:07:00,21.4,-20.4,31.03,SSW,210,3.0,6.0,14,-99.99,,,0.00,meteohub,2013-01-25 23:07:00,
2013-01-25 18:12:00,21.6,-20.4,31.03,SSW,205,6.0,6.0,14,-99.99,,,0.00,meteohub,2013-01-25 23:12:00,
2013-01-25 18:17:00,21.6,-20.4,31.03,SSW,194,3.0,6.0,14,-99.99,,,0.00,meteohub,2013-01-25 23:17:00,
2013-01-25 18:22:00,21.6,-20.4,31.03,SSW,206,4.0,6.0,14,-99.99,,,0.00,meteohub,2013-01-25 23:22:00,
2013-01-25 18:27:00,21.4,-20.4,31.03,SSW,208,4.0,6.0,14,-99.99,,,0.00,meteohub,2013-01-25 23:27:00,
2013-01-25 18:32:00,21.6,-20.4,31.03,South,186,4.0,6.0,14,-99.99,,,0.00,meteohub,2013-01-25 23:32:00,
2013-01-25 18:37:00,21.6,-20.4,31.03,SW,220,4.0,6.0,14,-99.99,,,0.00,meteohub,2013-01-25 23:37:00,
2013-01-25 18:42:00,21.6,-20.4,31.03,SW,224,3.0,6.0,14,-99.99,,,0.00,meteohub,2013-01-25 23:42:00,
2013-01-25 18:47:00,21.4,-20.4,31.03,SSW,207,4.0,6.0,14,-99.99,,,0.00,meteohub,2013-01-25 23:47:00,
2013-01-25 18:52:00,21.6,-20.4,31.03,SSW,199,3.0,6.0,14,-99.99,,,0.00,meteohub,2013-01-25 23:52:00,
2013-01-25 18:57:00,21.6,-20.4,31.03,SW,215,3.0,6.0,14,-99.99,,,0.00,meteohub,2013-01-25 23:57:00,
2013-01-25 19:02:00,21.6,-20.4,31.03,SW,225,3.0,6.0,14,-99.99,,,0.00,meteohub,2013-01-26 00:02:00,
2013-01-25 19:07:00,21.6,-20.4,31.03,South,182,5.0,5.0,14,-99.99,,,0.00,meteohub,2013-01-26 00:07:00,
2013-01-25 19:12:00,21.6,-20.4,31.03,SSW,204,3.0,5.0,14,-99.99,,,0.00,meteohub,2013-01-26 00:12:00,
2013-01-25 19:17:00,21.6,-20.4,31.03,SSW,210,3.0,5.0,14,-99.99,,,0.00,meteohub,2013-01-26 00:17:00,
2013-01-25 19:22:00,21.7,-20.2,31.03,SSW,193,3.0,5.0,14,-99.99,,,0.00,meteohub,2013-01-26 00:22:00,
2013-01-25 19:27:00,21.7,-20.2,31.03,South,181,4.0,4.0,14,-99.99,,,0.00,meteohub,2013-01-26 00:27:00,
2013-01-25 19:32:00,21.7,-20.2,31.03,SSW,199,4.0,4.0,14,-99.99,,,0.00,meteohub,2013-01-26 00:32:00,
2013-01-25 19:37:00,21.6,-20.4,31.03,SSW,207,3.0,4.0,14,-99.99,,,0.00,meteohub,2013-01-26 00:37:00,
2013-01-25 19:42:00,21.6,-20.4,31.03,SW,215,3.0,5.0,14,-99.99,,,0.00,meteohub,2013-01-26 00:42:00,
2013-01-25 19:47:00,21.7,-20.2,31.03,SSW,200,4.0,5.0,14,-99.99,,,0.00,meteohub,2013-01-26 00:47:00,
2013-01-25 19:52:00,21.7,-20.2,31.03,SSW,206,4.0,5.0,14,-99.99,,,0.00,meteohub,2013-01-26 00:52:00,
2013-01-25 19:57:00,21.7,-20.2,31.03,SSW,209,4.0,5.0,14,-99.99,,,0.00,meteohub,2013-01-26 00:57:00,
2013-01-25 20:02:00,21.7,-20.2,31.03,SW,217,4.0,5.0,14,-99.99,,,0.00,meteohub,2013-01-26 01:02:00,
2013-01-25 20:07:00,21.7,-20.2,31.03,SW,214,3.0,5.0,14,-99.99,,,0.00,meteohub,2013-01-26 01:07:00,
2013-01-25 20:12:00,21.7,-20.2,31.03,SSW,207,4.0,5.0,14,-99.99,,,0.00,meteohub,2013-01-26 01:12:00,
2013-01-25 20:17:00,21.7,-20.2,31.03,SSW,208,3.0,5.0,14,-99.99,,,0.00,meteohub,2013-01-26 01:17:00,
2013-01-25 20:22:00,21.7,-20.2,31.03,SW,223,3.0,5.0,14,-99.99,,,0.00,meteohub,2013-01-26 01:22:00,
2013-01-25 20:27:00,21.7,-20.2,31.03,WSW,239,3.0,4.0,14,-99.99,,,0.00,meteohub,2013-01-26 01:27:00,
2013-01-25 20:33:00,21.7,-20.2,31.03,WSW,239,2.0,4.0,14,-99.99,,,0.00,meteohub,2013-01-26 01:33:00,
2013-01-25 20:38:00,21.7,-20.2,31.03,WSW,240,2.0,4.0,14,-99.99,,,0.00,meteohub,2013-01-26 01:38:00,
2013-01-25 20:43:00,21.4,-20.4,31.03,WSW,240,3.0,4.0,14,-99.99,,,0.00,meteohub,2013-01-26 01:43:00,
2013-01-25 20:48:00,21.4,-20.4,31.03,West,263,4.0,4.0,14,-99.99,,,0.00,meteohub,2013-01-26 01:48:00,
2013-01-25 20:54:00,21.2,-20.6,31.03,NW,310,3.0,4.0,14,-99.99,,,0.00,meteohub,2013-01-26 01:54:00,
2013-01-25 20:59:00,21.2,-20.6,31.03,NW,311,0.0,5.0,14,-99.99,,,0.00,meteohub,2013-01-26 01:59:00,
2013-01-25 21:04:00,21.2,-20.6,31.03,NW,311,3.0,5.0,14,-99.99,,,0.00,meteohub,2013-01-26 02:04:00,
2013-01-25 21:10:00,21.2,-20.6,31.03,NW,311,3.0,5.0,14,-99.99,,,0.00,meteohub,2013-01-26 02:10:00,
2013-01-25 21:15:00,21.2,-20.6,31.03,NW,311,3.0,4.0,14,-99.99,,,0.00,meteohub,2013-01-26 02:15:00,
2013-01-25 21:20:00,21.2,-20.6,31.03,NW,310,0.0,4.0,14,-99.99,,,0.00,meteohub,2013-01-26 02:20:00,
2013-01-25 21:26:00,21.4,-20.4,31.03,NW,310,0.0,4.0,14,-99.99,,,0.00,meteohub,2013-01-26 02:26:00,
2013-01-25 21:31:00,21.6,-20.4,31.03,NW,310,3.0,4.0,14,-99.99,,,0.00,meteohub,2013-01-26 02:31:00,
2013-01-25 21:36:00,21.7,-20.2,31.03,SSW,209,3.0,4.0,14,-99.99,,,0.00,meteohub,2013-01-26 02:36:00,
2013-01-25 21:41:00,21.6,-20.4,31.03,SSW,194,4.0,4.0,14,-99.99,,,0.00,meteohub,2013-01-26 02:41:00,
2013-01-25 21:47:00,21.4,-20.4,31.03,South,183,4.0,4.0,14,-99.99,,,0.00,meteohub,2013-01-26 02:47:00,
2013-01-25 21:52:00,21.6,-20.4,31.03,South,182,4.0,4.0,14,-99.99,,,0.00,meteohub,2013-01-26 02:52:00,
2013-01-25 21:57:00,21.7,-20.2,31.03,South,189,3.0,4.0,14,-99.99,,,0.00,meteohub,2013-01-26 02:57:00,
2013-01-25 22:02:00,21.7,-20.2,31.03,SSW,199,3.0,4.0,14,-99.99,,,0.00,meteohub,2013-01-26 03:02:00,
2013-01-25 22:07:00,21.7,-20.2,31.03,South,187,4.0,4.0,14,-99.99,,,0.00,meteohub,2013-01-26 03:07:00,
2013-01-25 22:12:00,21.6,-20.4,31.03,SSW,211,5.0,5.0,14,-99.99,,,0.00,meteohub,2013-01-26 03:12:00,
2013-01-25 22:17:00,21.4,-20.4,31.03,SSW,196,6.0,6.0,14,-99.99,,,0.00,meteohub,2013-01-26 03:17:00,
2013-01-25 22:22:00,21.4,-20.4,31.03,SSW,202,4.0,6.0,14,-99.99,,,0.00,meteohub,2013-01-26 03:22:00,
2013-01-25 22:28:00,21.4,-20.4,31.03,SSW,192,6.0,6.0,14,-99.99,,,0.00,meteohub,2013-01-26 03:28:00,
2013-01-25 22:33:00,21.6,-20.4,31.03,SSW,194,5.0,6.0,14,-99.99,,,0.00,meteohub,2013-01-26 03:33:00,
2013-01-25 22:39:00,21.6,-20.4,31.03,SW,222,6.0,8.0,14,-99.99,,,0.00,meteohub,2013-01-26 03:39:00,
2013-01-25 22:44:00,21.6,-20.4,31.03,SW,214,6.0,8.0,14,-99.99,,,0.00,meteohub,2013-01-26 03:44:00,
2013-01-25 22:49:00,21.6,-20.4,31.03,SSW,212,5.0,8.0,14,-99.99,,,0.00,meteohub,2013-01-26 03:49:00,
2013-01-25 22:54:00,21.6,-20.4,31.03,SSW,199,4.0,8.0,14,-99.99,,,0.00,meteohub,2013-01-26 03:54:00,
2013-01-25 23:00:00,21.4,-20.4,31.03,SW,221,5.0,8.0,14,-99.99,,,0.00,meteohub,2013-01-26 04:00:00,
2013-01-25 23:06:00,21.2,-20.6,31.03,SW,215,6.0,8.0,14,-99.99,,,0.00,meteohub,2013-01-26 04:06:00,
2013-01-25 23:11:00,21.0,-20.7,31.03,WSW,256,5.0,8.0,14,-99.99,,,0.00,meteohub,2013-01-26 04:11:00,
2013-01-25 23:16:00,21.0,-20.7,31.03,WSW,241,6.0,8.0,14,-99.99,,,0.00,meteohub,2013-01-26 04:16:00,
2013-01-25 23:22:00,21.2,-20.6,31.03,SW,220,5.0,9.0,14,-99.99,,,0.00,meteohub,2013-01-26 04:22:00,
2013-01-25 23:27:00,21.0,-20.7,31.03,SSW,209,3.0,9.0,14,-99.99,,,0.00,meteohub,2013-01-26 04:27:00,
2013-01-25 23:32:00,21.0,-20.7,31.03,SW,214,3.0,9.0,14,-99.99,,,0.00,meteohub,2013-01-26 04:32:00,
2013-01-25 23:37:00,21.0,-20.7,31.03,WSW,243,4.0,9.0,14,-99.99,,,0.00,meteohub,2013-01-26 04:37:00,
2013-01-25 23:42:00,21.2,-20.6,31.03,SSW,206,4.0,8.0,14,-99.99,,,0.00,meteohub,2013-01-26 04:42:00,
2013-01-25 23:47:00,21.0,-20.7,31.03,SSW,201,4.0,6.0,14,-99.99,,,0.00,meteohub,2013-01-26 04:47:00,
2013-01-25 23:52:00,20.8,-20.9,31.03,SSW,204,2.0,6.0,14,-99.99,,,0.00,meteohub,2013-01-26 04:52:00,
2013-01-25 23:58:00,20.8,-20.9,31.03,WSW,241,4.0,5.0,14,-99.99,,,0.00,meteohub,2013-01-26 04:58:00,